sensor_id;sensor_type;location;lat;lon;timestamp;P1;durP1;ratioP1;P2;durP2;ratioP2
8580;SDS011;4328;48.622;9.230;2023-06-22T00:01:54;9.17;;;7.43;;
8580;SDS011;4328;48.622;9.230;2023-06-22T00:04:21;8.27;;;7.43;;
8580;SDS011;4328;48.622;9.230;2023-06-22T00:06:47;8.83;;;8.03;;
8580;SDS011;4328;48.622;9.230;2023-06-22T00:09:14;12.73;;;8.10;;
8580;SDS011;4328;48.622;9.230;2023-06-22T00:11:40;8.00;;;7.40;;
8580;SDS011;4328;48.622;9.230;2023-06-22T00:14:06;8.23;;;7.43;;
8580;SDS011;4328;48.622;9.230;2023-06-22T00:16:34;8.70;;;7.93;;
8580;SDS011;4328;48.622;9.230;2023-06-22T00:19:01;8.63;;;7.83;;
8580;SDS011;4328;48.622;9.230;2023-06-22T00:21:28;8.80;;;8.00;;
8580;SDS011;4328;48.622;9.230;2023-06-22T00:23:55;8.70;;;7.67;;
8580;SDS011;4328;48.622;9.230;2023-06-22T00:26:22;8.97;;;8.00;;
8580;SDS011;4328;48.622;9.230;2023-06-22T00:28:49;8.47;;;7.57;;
8580;SDS011;4328;48.622;9.230;2023-06-22T00:31:16;8.87;;;7.97;;
8580;SDS011;4328;48.622;9.230;2023-06-22T00:33:44;8.63;;;7.83;;
8580;SDS011;4328;48.622;9.230;2023-06-22T00:36:10;8.63;;;7.77;;
8580;SDS011;4328;48.622;9.230;2023-06-22T00:38:38;8.57;;;7.67;;
8580;SDS011;4328;48.622;9.230;2023-06-22T00:41:05;8.70;;;7.90;;
8580;SDS011;4328;48.622;9.230;2023-06-22T00:43:31;8.53;;;7.80;;
8580;SDS011;4328;48.622;9.230;2023-06-22T00:45:58;8.80;;;7.90;;
8580;SDS011;4328;48.622;9.230;2023-06-22T00:48:24;8.93;;;8.03;;
8580;SDS011;4328;48.622;9.230;2023-06-22T00:50:52;8.50;;;7.63;;
8580;SDS011;4328;48.622;9.230;2023-06-22T00:53:21;8.63;;;7.60;;
8580;SDS011;4328;48.622;9.230;2023-06-22T00:55:48;8.00;;;7.40;;
8580;SDS011;4328;48.622;9.230;2023-06-22T00:58:16;8.80;;;7.77;;
8580;SDS011;4328;48.622;9.230;2023-06-22T01:00:43;8.83;;;7.93;;
8580;SDS011;4328;48.622;9.230;2023-06-22T01:03:09;9.27;;;7.93;;
8580;SDS011;4328;48.622;9.230;2023-06-22T01:05:36;8.83;;;7.80;;
8580;SDS011;4328;48.622;9.230;2023-06-22T01:08:08;8.67;;;7.93;;
8580;SDS011;4328;48.622;9.230;2023-06-22T01:10:40;8.50;;;7.60;;
8580;SDS011;4328;48.622;9.230;2023-06-22T01:13:14;8.60;;;7.77;;
8580;SDS011;4328;48.622;9.230;2023-06-22T01:15:43;8.27;;;7.57;;
8580;SDS011;4328;48.622;9.230;2023-06-22T01:18:11;8.40;;;7.80;;
8580;SDS011;4328;48.622;9.230;2023-06-22T01:20:39;9.07;;;8.27;;
8580;SDS011;4328;48.622;9.230;2023-06-22T01:23:10;8.97;;;8.27;;
8580;SDS011;4328;48.622;9.230;2023-06-22T01:25:41;8.87;;;7.97;;
8580;SDS011;4328;48.622;9.230;2023-06-22T01:28:12;9.23;;;8.17;;
8580;SDS011;4328;48.622;9.230;2023-06-22T01:30:46;9.00;;;8.10;;
8580;SDS011;4328;48.622;9.230;2023-06-22T01:33:14;8.83;;;7.67;;
8580;SDS011;4328;48.622;9.230;2023-06-22T01:35:41;8.93;;;8.10;;
8580;SDS011;4328;48.622;9.230;2023-06-22T01:38:08;9.53;;;8.30;;
8580;SDS011;4328;48.622;9.230;2023-06-22T01:40:35;8.70;;;7.80;;
8580;SDS011;4328;48.622;9.230;2023-06-22T01:43:02;8.83;;;7.77;;
8580;SDS011;4328;48.622;9.230;2023-06-22T01:45:29;8.93;;;7.93;;
8580;SDS011;4328;48.622;9.230;2023-06-22T01:47:57;8.77;;;7.80;;
8580;SDS011;4328;48.622;9.230;2023-06-22T01:50:24;8.87;;;7.80;;
8580;SDS011;4328;48.622;9.230;2023-06-22T01:52:50;8.80;;;7.93;;
8580;SDS011;4328;48.622;9.230;2023-06-22T01:55:16;11.73;;;7.50;;
8580;SDS011;4328;48.622;9.230;2023-06-22T01:57:43;8.90;;;8.03;;
8580;SDS011;4328;48.622;9.230;2023-06-22T02:00:10;8.50;;;7.70;;
8580;SDS011;4328;48.622;9.230;2023-06-22T02:02:39;10.53;;;7.80;;
8580;SDS011;4328;48.622;9.230;2023-06-22T02:05:09;9.53;;;8.20;;
8580;SDS011;4328;48.622;9.230;2023-06-22T02:07:39;8.63;;;7.83;;
8580;SDS011;4328;48.622;9.230;2023-06-22T02:10:08;9.07;;;8.20;;
8580;SDS011;4328;48.622;9.230;2023-06-22T02:12:37;10.10;;;8.57;;
8580;SDS011;4328;48.622;9.230;2023-06-22T02:15:05;9.00;;;8.10;;
8580;SDS011;4328;48.622;9.230;2023-06-22T02:17:32;9.80;;;7.93;;
8580;SDS011;4328;48.622;9.230;2023-06-22T02:20:00;9.63;;;7.60;;
8580;SDS011;4328;48.622;9.230;2023-06-22T02:22:29;9.43;;;8.50;;
8580;SDS011;4328;48.622;9.230;2023-06-22T02:24:56;9.17;;;8.37;;
8580;SDS011;4328;48.622;9.230;2023-06-22T02:27:22;9.40;;;8.47;;
8580;SDS011;4328;48.622;9.230;2023-06-22T02:29:49;9.23;;;8.40;;
8580;SDS011;4328;48.622;9.230;2023-06-22T02:32:15;9.00;;;8.20;;
8580;SDS011;4328;48.622;9.230;2023-06-22T02:34:42;11.17;;;8.83;;
8580;SDS011;4328;48.622;9.230;2023-06-22T02:37:12;9.43;;;8.27;;
8580;SDS011;4328;48.622;9.230;2023-06-22T02:39:40;8.93;;;8.13;;
8580;SDS011;4328;48.622;9.230;2023-06-22T02:42:07;11.23;;;8.10;;
8580;SDS011;4328;48.622;9.230;2023-06-22T02:44:35;9.43;;;7.97;;
8580;SDS011;4328;48.622;9.230;2023-06-22T02:47:02;9.67;;;7.80;;
8580;SDS011;4328;48.622;9.230;2023-06-22T02:49:28;9.37;;;8.10;;
8580;SDS011;4328;48.622;9.230;2023-06-22T02:51:55;9.17;;;8.27;;
8580;SDS011;4328;48.622;9.230;2023-06-22T02:54:21;8.90;;;8.10;;
8580;SDS011;4328;48.622;9.230;2023-06-22T02:56:49;8.90;;;8.10;;
8580;SDS011;4328;48.622;9.230;2023-06-22T02:59:15;8.57;;;7.77;;
8580;SDS011;4328;48.622;9.230;2023-06-22T03:01:42;8.63;;;7.93;;
8580;SDS011;4328;48.622;9.230;2023-06-22T03:04:09;9.20;;;8.30;;
8580;SDS011;4328;48.622;9.230;2023-06-22T03:06:35;9.17;;;8.30;;
8580;SDS011;4328;48.622;9.230;2023-06-22T03:09:03;9.00;;;8.20;;
8580;SDS011;4328;48.622;9.230;2023-06-22T03:11:29;8.43;;;7.63;;
8580;SDS011;4328;48.622;9.230;2023-06-22T03:13:57;9.77;;;8.17;;
8580;SDS011;4328;48.622;9.230;2023-06-22T03:16:24;8.87;;;8.07;;
8580;SDS011;4328;48.622;9.230;2023-06-22T03:18:50;8.13;;;7.37;;
8580;SDS011;4328;48.622;9.230;2023-06-22T03:21:18;9.73;;;7.33;;
8580;SDS011;4328;48.622;9.230;2023-06-22T03:23:44;8.40;;;7.57;;
8580;SDS011;4328;48.622;9.230;2023-06-22T03:26:11;8.90;;;7.70;;
8580;SDS011;4328;48.622;9.230;2023-06-22T03:28:38;11.50;;;7.90;;
8580;SDS011;4328;48.622;9.230;2023-06-22T03:31:05;8.27;;;7.43;;
8580;SDS011;4328;48.622;9.230;2023-06-22T03:33:32;8.83;;;7.97;;
8580;SDS011;4328;48.622;9.230;2023-06-22T03:35:59;10.50;;;7.87;;
8580;SDS011;4328;48.622;9.230;2023-06-22T03:38:25;9.17;;;8.00;;
8580;SDS011;4328;48.622;9.230;2023-06-22T03:40:51;9.03;;;7.70;;
8580;SDS011;4328;48.622;9.230;2023-06-22T03:43:18;10.13;;;7.60;;
8580;SDS011;4328;48.622;9.230;2023-06-22T03:45:44;8.13;;;7.33;;
8580;SDS011;4328;48.622;9.230;2023-06-22T03:48:12;8.20;;;7.50;;
8580;SDS011;4328;48.622;9.230;2023-06-22T03:50:39;8.73;;;7.93;;
8580;SDS011;4328;48.622;9.230;2023-06-22T03:53:05;10.03;;;8.10;;
8580;SDS011;4328;48.622;9.230;2023-06-22T03:55:33;9.07;;;7.70;;
8580;SDS011;4328;48.622;9.230;2023-06-22T03:58:00;8.07;;;7.27;;
8580;SDS011;4328;48.622;9.230;2023-06-22T04:00:30;8.87;;;7.60;;
8580;SDS011;4328;48.622;9.230;2023-06-22T04:02:57;9.00;;;7.57;;
8580;SDS011;4328;48.622;9.230;2023-06-22T04:05:25;9.07;;;8.17;;
8580;SDS011;4328;48.622;9.230;2023-06-22T04:07:51;8.63;;;7.83;;
8580;SDS011;4328;48.622;9.230;2023-06-22T04:10:17;8.20;;;7.40;;
8580;SDS011;4328;48.622;9.230;2023-06-22T04:12:44;8.37;;;7.57;;
8580;SDS011;4328;48.622;9.230;2023-06-22T04:15:10;8.90;;;8.00;;
8580;SDS011;4328;48.622;9.230;2023-06-22T04:17:37;7.97;;;7.27;;
8580;SDS011;4328;48.622;9.230;2023-06-22T04:20:03;8.40;;;7.27;;
8580;SDS011;4328;48.622;9.230;2023-06-22T04:22:31;8.53;;;7.73;;
8580;SDS011;4328;48.622;9.230;2023-06-22T04:24:58;8.33;;;7.50;;
8580;SDS011;4328;48.622;9.230;2023-06-22T04:27:24;8.20;;;7.50;;
8580;SDS011;4328;48.622;9.230;2023-06-22T04:29:51;8.67;;;7.90;;
8580;SDS011;4328;48.622;9.230;2023-06-22T04:32:18;10.43;;;7.93;;
8580;SDS011;4328;48.622;9.230;2023-06-22T04:34:44;9.60;;;7.77;;
8580;SDS011;4328;48.622;9.230;2023-06-22T04:37:10;9.03;;;7.60;;
8580;SDS011;4328;48.622;9.230;2023-06-22T04:39:42;8.03;;;7.23;;
8580;SDS011;4328;48.622;9.230;2023-06-22T04:42:08;8.43;;;7.63;;
8580;SDS011;4328;48.622;9.230;2023-06-22T04:44:35;11.87;;;7.90;;
8580;SDS011;4328;48.622;9.230;2023-06-22T04:47:01;9.20;;;7.07;;
8580;SDS011;4328;48.622;9.230;2023-06-22T04:49:29;8.60;;;7.50;;
8580;SDS011;4328;48.622;9.230;2023-06-22T04:51:58;8.17;;;7.37;;
8580;SDS011;4328;48.622;9.230;2023-06-22T04:54:24;8.63;;;7.63;;
8580;SDS011;4328;48.622;9.230;2023-06-22T04:56:52;8.23;;;7.40;;
8580;SDS011;4328;48.622;9.230;2023-06-22T04:59:21;8.43;;;7.73;;
8580;SDS011;4328;48.622;9.230;2023-06-22T05:01:47;8.70;;;7.80;;
8580;SDS011;4328;48.622;9.230;2023-06-22T05:04:16;9.03;;;8.13;;
8580;SDS011;4328;48.622;9.230;2023-06-22T05:06:42;8.50;;;7.60;;
8580;SDS011;4328;48.622;9.230;2023-06-22T05:09:10;8.83;;;7.57;;
8580;SDS011;4328;48.622;9.230;2023-06-22T05:11:37;8.07;;;7.37;;
8580;SDS011;4328;48.622;9.230;2023-06-22T05:14:05;8.70;;;7.50;;
8580;SDS011;4328;48.622;9.230;2023-06-22T05:16:32;8.63;;;7.83;;
8580;SDS011;4328;48.622;9.230;2023-06-22T05:18:59;8.67;;;7.87;;
8580;SDS011;4328;48.622;9.230;2023-06-22T05:21:25;9.93;;;8.30;;
8580;SDS011;4328;48.622;9.230;2023-06-22T05:23:52;9.60;;;8.70;;
8580;SDS011;4328;48.622;9.230;2023-06-22T05:26:19;10.43;;;9.33;;
8580;SDS011;4328;48.622;9.230;2023-06-22T05:28:46;12.23;;;9.17;;
8580;SDS011;4328;48.622;9.230;2023-06-22T05:31:14;10.13;;;9.13;;
8580;SDS011;4328;48.622;9.230;2023-06-22T05:33:40;13.40;;;8.87;;
8580;SDS011;4328;48.622;9.230;2023-06-22T05:36:07;10.27;;;8.60;;
8580;SDS011;4328;48.622;9.230;2023-06-22T05:38:33;9.70;;;8.50;;
8580;SDS011;4328;48.622;9.230;2023-06-22T05:41:00;10.60;;;9.10;;
8580;SDS011;4328;48.622;9.230;2023-06-22T05:43:26;9.87;;;8.97;;
8580;SDS011;4328;48.622;9.230;2023-06-22T05:45:53;10.97;;;8.40;;
8580;SDS011;4328;48.622;9.230;2023-06-22T05:48:20;8.67;;;7.80;;
8580;SDS011;4328;48.622;9.230;2023-06-22T05:50:47;7.03;;;6.40;;
8580;SDS011;4328;48.622;9.230;2023-06-22T05:53:13;12.13;;;7.37;;
8580;SDS011;4328;48.622;9.230;2023-06-22T05:55:40;10.87;;;7.87;;
8580;SDS011;4328;48.622;9.230;2023-06-22T05:58:07;8.50;;;6.57;;
8580;SDS011;4328;48.622;9.230;2023-06-22T06:00:34;8.30;;;6.50;;
8580;SDS011;4328;48.622;9.230;2023-06-22T06:03:00;7.87;;;6.20;;
8580;SDS011;4328;48.622;9.230;2023-06-22T06:05:29;8.80;;;6.20;;
8580;SDS011;4328;48.622;9.230;2023-06-22T06:07:56;6.87;;;6.17;;
8580;SDS011;4328;48.622;9.230;2023-06-22T06:10:22;6.30;;;5.70;;
8580;SDS011;4328;48.622;9.230;2023-06-22T06:12:48;6.40;;;5.20;;
8580;SDS011;4328;48.622;9.230;2023-06-22T06:15:15;6.27;;;5.50;;
8580;SDS011;4328;48.622;9.230;2023-06-22T06:17:45;9.30;;;5.90;;
8580;SDS011;4328;48.622;9.230;2023-06-22T06:20:11;8.50;;;6.17;;
8580;SDS011;4328;48.622;9.230;2023-06-22T06:22:39;7.27;;;5.50;;
8580;SDS011;4328;48.622;9.230;2023-06-22T06:25:08;7.70;;;5.23;;
8580;SDS011;4328;48.622;9.230;2023-06-22T06:27:34;7.40;;;5.33;;
8580;SDS011;4328;48.622;9.230;2023-06-22T06:30:01;5.80;;;5.30;;
8580;SDS011;4328;48.622;9.230;2023-06-22T06:32:28;5.73;;;5.03;;
8580;SDS011;4328;48.622;9.230;2023-06-22T06:34:55;5.70;;;5.07;;
8580;SDS011;4328;48.622;9.230;2023-06-22T06:37:21;7.33;;;5.40;;
8580;SDS011;4328;48.622;9.230;2023-06-22T06:39:49;5.73;;;4.87;;
8580;SDS011;4328;48.622;9.230;2023-06-22T06:42:15;6.20;;;4.90;;
8580;SDS011;4328;48.622;9.230;2023-06-22T06:44:41;5.83;;;5.20;;
8580;SDS011;4328;48.622;9.230;2023-06-22T06:47:08;5.53;;;5.00;;
8580;SDS011;4328;48.622;9.230;2023-06-22T06:49:34;6.63;;;5.33;;
8580;SDS011;4328;48.622;9.230;2023-06-22T06:52:01;5.63;;;4.70;;
8580;SDS011;4328;48.622;9.230;2023-06-22T06:54:27;5.20;;;4.20;;
8580;SDS011;4328;48.622;9.230;2023-06-22T06:56:55;8.07;;;4.23;;
8580;SDS011;4328;48.622;9.230;2023-06-22T06:59:21;5.43;;;4.50;;
8580;SDS011;4328;48.622;9.230;2023-06-22T07:01:48;6.80;;;4.90;;
8580;SDS011;4328;48.622;9.230;2023-06-22T07:04:14;5.43;;;4.87;;
8580;SDS011;4328;48.622;9.230;2023-06-22T07:06:40;6.20;;;4.40;;
8580;SDS011;4328;48.622;9.230;2023-06-22T07:09:08;5.17;;;4.50;;
8580;SDS011;4328;48.622;9.230;2023-06-22T07:11:34;4.53;;;4.13;;
8580;SDS011;4328;48.622;9.230;2023-06-22T07:14:03;7.03;;;4.50;;
8580;SDS011;4328;48.622;9.230;2023-06-22T07:16:29;4.57;;;4.00;;
8580;SDS011;4328;48.622;9.230;2023-06-22T07:18:56;5.87;;;4.20;;
8580;SDS011;4328;48.622;9.230;2023-06-22T07:21:23;5.43;;;4.40;;
8580;SDS011;4328;48.622;9.230;2023-06-22T07:23:49;7.50;;;4.50;;
8580;SDS011;4328;48.622;9.230;2023-06-22T07:26:15;6.53;;;4.43;;
8580;SDS011;4328;48.622;9.230;2023-06-22T07:28:42;5.00;;;4.50;;
8580;SDS011;4328;48.622;9.230;2023-06-22T07:31:10;5.03;;;4.22;;
8580;SDS011;4328;48.622;9.230;2023-06-22T07:33:36;5.13;;;3.78;;
8580;SDS011;4328;48.622;9.230;2023-06-22T07:36:03;4.85;;;4.20;;
8580;SDS011;4328;48.622;9.230;2023-06-22T07:38:33;7.78;;;4.20;;
8580;SDS011;4328;48.622;9.230;2023-06-22T07:41:07;4.95;;;3.95;;
8580;SDS011;4328;48.622;9.230;2023-06-22T07:43:33;5.82;;;4.22;;
8580;SDS011;4328;48.622;9.230;2023-06-22T07:46:02;5.63;;;4.28;;
8580;SDS011;4328;48.622;9.230;2023-06-22T07:48:30;5.15;;;3.80;;
8580;SDS011;4328;48.622;9.230;2023-06-22T07:50:56;4.35;;;3.88;;
8580;SDS011;4328;48.622;9.230;2023-06-22T07:53:23;6.43;;;4.07;;
8580;SDS011;4328;48.622;9.230;2023-06-22T07:55:49;5.75;;;3.88;;
8580;SDS011;4328;48.622;9.230;2023-06-22T07:58:16;5.07;;;4.22;;
8580;SDS011;4328;48.622;9.230;2023-06-22T08:00:44;6.05;;;3.92;;
8580;SDS011;4328;48.622;9.230;2023-06-22T08:03:10;6.13;;;4.07;;
8580;SDS011;4328;48.622;9.230;2023-06-22T08:05:38;5.07;;;3.75;;
8580;SDS011;4328;48.622;9.230;2023-06-22T08:08:04;7.07;;;4.15;;
8580;SDS011;4328;48.622;9.230;2023-06-22T08:10:31;6.45;;;4.18;;
8580;SDS011;4328;48.622;9.230;2023-06-22T08:12:57;6.20;;;4.10;;
8580;SDS011;4328;48.622;9.230;2023-06-22T08:15:26;6.43;;;3.88;;
8580;SDS011;4328;48.622;9.230;2023-06-22T08:17:53;7.60;;;4.45;;
8580;SDS011;4328;48.622;9.230;2023-06-22T08:20:19;10.15;;;4.32;;
8580;SDS011;4328;48.622;9.230;2023-06-22T08:22:47;4.97;;;3.97;;
8580;SDS011;4328;48.622;9.230;2023-06-22T08:25:14;8.50;;;4.13;;
8580;SDS011;4328;48.622;9.230;2023-06-22T08:27:40;6.28;;;4.15;;
8580;SDS011;4328;48.622;9.230;2023-06-22T08:30:07;4.70;;;3.70;;
8580;SDS011;4328;48.622;9.230;2023-06-22T08:32:33;6.63;;;4.38;;
8580;SDS011;4328;48.622;9.230;2023-06-22T08:35:00;6.75;;;4.10;;
8580;SDS011;4328;48.622;9.230;2023-06-22T08:37:26;8.05;;;4.30;;
8580;SDS011;4328;48.622;9.230;2023-06-22T08:39:58;7.20;;;4.30;;
8580;SDS011;4328;48.622;9.230;2023-06-22T08:42:24;5.35;;;3.70;;
8580;SDS011;4328;48.622;9.230;2023-06-22T08:44:51;6.45;;;4.40;;
8580;SDS011;4328;48.622;9.230;2023-06-22T08:47:17;5.93;;;4.10;;
8580;SDS011;4328;48.622;9.230;2023-06-22T08:49:44;8.07;;;4.50;;
8580;SDS011;4328;48.622;9.230;2023-06-22T08:52:10;5.93;;;3.92;;
8580;SDS011;4328;48.622;9.230;2023-06-22T08:54:36;5.40;;;4.60;;
8580;SDS011;4328;48.622;9.230;2023-06-22T08:57:05;6.07;;;3.88;;
8580;SDS011;4328;48.622;9.230;2023-06-22T08:59:31;7.20;;;4.43;;
8580;SDS011;4328;48.622;9.230;2023-06-22T09:01:58;5.75;;;3.97;;
8580;SDS011;4328;48.622;9.230;2023-06-22T09:04:24;6.60;;;3.97;;
8580;SDS011;4328;48.622;9.230;2023-06-22T09:06:50;4.18;;;3.78;;
8580;SDS011;4328;48.622;9.230;2023-06-22T09:09:17;9.88;;;4.50;;
8580;SDS011;4328;48.622;9.230;2023-06-22T09:11:44;5.65;;;3.95;;
8580;SDS011;4328;48.622;9.230;2023-06-22T09:14:12;5.50;;;4.68;;
8580;SDS011;4328;48.622;9.230;2023-06-22T09:16:38;7.18;;;4.35;;
8580;SDS011;4328;48.622;9.230;2023-06-22T09:19:05;9.15;;;4.32;;
8580;SDS011;4328;48.622;9.230;2023-06-22T09:21:31;7.90;;;5.00;;
8580;SDS011;4328;48.622;9.230;2023-06-22T09:23:58;5.65;;;3.92;;
8580;SDS011;4328;48.622;9.230;2023-06-22T09:26:24;7.18;;;4.70;;
8580;SDS011;4328;48.622;9.230;2023-06-22T09:28:51;8.05;;;4.30;;
8580;SDS011;4328;48.622;9.230;2023-06-22T09:31:19;8.88;;;4.57;;
8580;SDS011;4328;48.622;9.230;2023-06-22T09:33:50;11.50;;;4.70;;
8580;SDS011;4328;48.622;9.230;2023-06-22T09:36:16;6.95;;;4.45;;
8580;SDS011;4328;48.622;9.230;2023-06-22T09:38:43;7.38;;;4.22;;
8580;SDS011;4328;48.622;9.230;2023-06-22T09:41:09;7.20;;;4.30;;
8580;SDS011;4328;48.622;9.230;2023-06-22T09:43:36;6.97;;;4.20;;
8580;SDS011;4328;48.622;9.230;2023-06-22T09:46:02;5.97;;;4.50;;
8580;SDS011;4328;48.622;9.230;2023-06-22T09:48:30;6.55;;;4.18;;
8580;SDS011;4328;48.622;9.230;2023-06-22T09:50:56;7.90;;;4.45;;
8580;SDS011;4328;48.622;9.230;2023-06-22T09:53:22;8.65;;;4.63;;
8580;SDS011;4328;48.622;9.230;2023-06-22T09:55:49;13.70;;;4.65;;
8580;SDS011;4328;48.622;9.230;2023-06-22T09:58:15;9.85;;;4.68;;
8580;SDS011;4328;48.622;9.230;2023-06-22T10:00:42;10.98;;;6.70;;
8580;SDS011;4328;48.622;9.230;2023-06-22T10:03:08;5.32;;;4.60;;
8580;SDS011;4328;48.622;9.230;2023-06-22T10:05:36;10.70;;;4.90;;
8580;SDS011;4328;48.622;9.230;2023-06-22T10:08:03;8.63;;;4.53;;
8580;SDS011;4328;48.622;9.230;2023-06-22T10:10:29;9.52;;;5.28;;
8580;SDS011;4328;48.622;9.230;2023-06-22T10:12:56;7.55;;;4.88;;
8580;SDS011;4328;48.622;9.230;2023-06-22T10:15:23;6.97;;;4.38;;
8580;SDS011;4328;48.622;9.230;2023-06-22T10:17:49;5.97;;;4.90;;
8580;SDS011;4328;48.622;9.230;2023-06-22T10:20:16;6.97;;;5.20;;
8580;SDS011;4328;48.622;9.230;2023-06-22T10:22:44;7.72;;;4.80;;
8580;SDS011;4328;48.622;9.230;2023-06-22T10:25:12;6.38;;;4.82;;
8580;SDS011;4328;48.622;9.230;2023-06-22T10:27:38;11.05;;;4.60;;
8580;SDS011;4328;48.622;9.230;2023-06-22T10:30:06;6.15;;;4.63;;
8580;SDS011;4328;48.622;9.230;2023-06-22T10:32:32;6.60;;;4.55;;
8580;SDS011;4328;48.622;9.230;2023-06-22T10:34:59;9.20;;;4.95;;
8580;SDS011;4328;48.622;9.230;2023-06-22T10:37:25;8.48;;;4.82;;
8580;SDS011;4328;48.622;9.230;2023-06-22T10:39:53;5.97;;;4.50;;
8580;SDS011;4328;48.622;9.230;2023-06-22T10:42:19;7.00;;;4.35;;
8580;SDS011;4328;48.622;9.230;2023-06-22T10:44:46;7.07;;;4.70;;
8580;SDS011;4328;48.622;9.230;2023-06-22T10:47:12;6.50;;;4.53;;
8580;SDS011;4328;48.622;9.230;2023-06-22T10:49:39;7.95;;;4.90;;
8580;SDS011;4328;48.622;9.230;2023-06-22T10:52:06;9.65;;;4.88;;
8580;SDS011;4328;48.622;9.230;2023-06-22T10:54:32;11.32;;;5.38;;
8580;SDS011;4328;48.622;9.230;2023-06-22T10:57:00;7.75;;;4.53;;
8580;SDS011;4328;48.622;9.230;2023-06-22T10:59:27;8.95;;;4.90;;
8580;SDS011;4328;48.622;9.230;2023-06-22T11:01:54;10.73;;;5.28;;
8580;SDS011;4328;48.622;9.230;2023-06-22T11:04:21;8.35;;;5.53;;
8580;SDS011;4328;48.622;9.230;2023-06-22T11:06:47;6.63;;;5.10;;
8580;SDS011;4328;48.622;9.230;2023-06-22T11:09:14;9.00;;;4.78;;
8580;SDS011;4328;48.622;9.230;2023-06-22T11:11:43;8.25;;;4.45;;
8580;SDS011;4328;48.622;9.230;2023-06-22T11:14:11;8.20;;;4.45;;
8580;SDS011;4328;48.622;9.230;2023-06-22T11:16:38;6.72;;;4.57;;
8580;SDS011;4328;48.622;9.230;2023-06-22T11:19:04;10.30;;;4.72;;
8580;SDS011;4328;48.622;9.230;2023-06-22T11:21:31;11.18;;;4.57;;
8580;SDS011;4328;48.622;9.230;2023-06-22T11:23:57;11.52;;;5.18;;
8580;SDS011;4328;48.622;9.230;2023-06-22T11:26:24;7.40;;;4.68;;
8580;SDS011;4328;48.622;9.230;2023-06-22T11:28:52;7.68;;;4.32;;
8580;SDS011;4328;48.622;9.230;2023-06-22T11:31:20;9.52;;;4.90;;
8580;SDS011;4328;48.622;9.230;2023-06-22T11:33:46;6.43;;;4.80;;
8580;SDS011;4328;48.622;9.230;2023-06-22T11:36:13;7.72;;;5.10;;
8580;SDS011;4328;48.622;9.230;2023-06-22T11:38:40;8.77;;;4.35;;
8580;SDS011;4328;48.622;9.230;2023-06-22T11:41:07;9.00;;;4.88;;
8580;SDS011;4328;48.622;9.230;2023-06-22T11:43:33;6.28;;;4.57;;
8580;SDS011;4328;48.622;9.230;2023-06-22T11:46:01;13.75;;;5.10;;
8580;SDS011;4328;48.622;9.230;2023-06-22T11:48:29;8.73;;;5.25;;
8580;SDS011;4328;48.622;9.230;2023-06-22T11:50:56;7.43;;;4.72;;
8580;SDS011;4328;48.622;9.230;2023-06-22T11:53:23;12.70;;;4.72;;
8580;SDS011;4328;48.622;9.230;2023-06-22T11:55:50;9.20;;;5.13;;
8580;SDS011;4328;48.622;9.230;2023-06-22T11:58:17;11.80;;;5.32;;
8580;SDS011;4328;48.622;9.230;2023-06-22T12:00:44;11.43;;;5.25;;
8580;SDS011;4328;48.622;9.230;2023-06-22T12:03:11;10.75;;;5.00;;
8580;SDS011;4328;48.622;9.230;2023-06-22T12:05:39;10.00;;;4.90;;
8580;SDS011;4328;48.622;9.230;2023-06-22T12:08:05;8.00;;;5.40;;
8580;SDS011;4328;48.622;9.230;2023-06-22T12:10:31;8.45;;;5.45;;
8580;SDS011;4328;48.622;9.230;2023-06-22T12:12:58;11.40;;;4.93;;
8580;SDS011;4328;48.622;9.230;2023-06-22T12:15:25;9.52;;;4.70;;
8580;SDS011;4328;48.622;9.230;2023-06-22T12:17:51;7.03;;;4.93;;
8580;SDS011;4328;48.622;9.230;2023-06-22T12:20:18;7.38;;;5.10;;
8580;SDS011;4328;48.622;9.230;2023-06-22T12:22:46;11.65;;;5.03;;
8580;SDS011;4328;48.622;9.230;2023-06-22T12:25:12;10.85;;;4.95;;
8580;SDS011;4328;48.622;9.230;2023-06-22T12:27:39;5.47;;;4.32;;
8580;SDS011;4328;48.622;9.230;2023-06-22T12:30:05;8.00;;;4.75;;
8580;SDS011;4328;48.622;9.230;2023-06-22T12:32:32;9.30;;;4.75;;
8580;SDS011;4328;48.622;9.230;2023-06-22T12:34:58;14.02;;;5.22;;
8580;SDS011;4328;48.622;9.230;2023-06-22T12:37:25;10.50;;;4.95;;
8580;SDS011;4328;48.622;9.230;2023-06-22T12:39:53;7.03;;;4.70;;
8580;SDS011;4328;48.622;9.230;2023-06-22T12:42:19;8.13;;;4.88;;
8580;SDS011;4328;48.622;9.230;2023-06-22T12:44:46;8.00;;;5.25;;
8580;SDS011;4328;48.622;9.230;2023-06-22T12:47:12;7.63;;;4.82;;
8580;SDS011;4328;48.622;9.230;2023-06-22T12:49:39;9.73;;;4.63;;
8580;SDS011;4328;48.622;9.230;2023-06-22T12:52:08;8.75;;;5.15;;
8580;SDS011;4328;48.622;9.230;2023-06-22T12:54:35;7.43;;;5.07;;
8580;SDS011;4328;48.622;9.230;2023-06-22T12:57:02;10.55;;;5.30;;
8580;SDS011;4328;48.622;9.230;2023-06-22T12:59:29;8.50;;;5.00;;
8580;SDS011;4328;48.622;9.230;2023-06-22T13:01:55;9.02;;;5.03;;
8580;SDS011;4328;48.622;9.230;2023-06-22T13:04:22;9.35;;;5.10;;
8580;SDS011;4328;48.622;9.230;2023-06-22T13:06:48;10.07;;;4.80;;
8580;SDS011;4328;48.622;9.230;2023-06-22T13:09:15;9.77;;;5.10;;
8580;SDS011;4328;48.622;9.230;2023-06-22T13:11:42;8.45;;;4.82;;
8580;SDS011;4328;48.622;9.230;2023-06-22T13:14:10;5.68;;;4.57;;
8580;SDS011;4328;48.622;9.230;2023-06-22T13:16:36;6.85;;;4.65;;
8580;SDS011;4328;48.622;9.230;2023-06-22T13:19:03;8.02;;;4.70;;
8580;SDS011;4328;48.622;9.230;2023-06-22T13:21:29;7.85;;;4.40;;
8580;SDS011;4328;48.622;9.230;2023-06-22T13:23:56;6.65;;;5.05;;
8580;SDS011;4328;48.622;9.230;2023-06-22T13:26:22;8.00;;;4.60;;
8580;SDS011;4328;48.622;9.230;2023-06-22T13:28:49;14.88;;;4.80;;
8580;SDS011;4328;48.622;9.230;2023-06-22T13:31:17;8.90;;;5.10;;
8580;SDS011;4328;48.622;9.230;2023-06-22T13:33:43;11.93;;;5.00;;
8580;SDS011;4328;48.622;9.230;2023-06-22T13:36:12;8.85;;;4.72;;
8580;SDS011;4328;48.622;9.230;2023-06-22T13:38:39;8.95;;;4.63;;
8580;SDS011;4328;48.622;9.230;2023-06-22T13:41:05;8.27;;;4.60;;
8580;SDS011;4328;48.622;9.230;2023-06-22T13:43:32;10.40;;;4.78;;
8580;SDS011;4328;48.622;9.230;2023-06-22T13:45:58;8.48;;;4.53;;
8580;SDS011;4328;48.622;9.230;2023-06-22T13:48:26;10.30;;;5.07;;
8580;SDS011;4328;48.622;9.230;2023-06-22T13:50:53;7.75;;;4.85;;
8580;SDS011;4328;48.622;9.230;2023-06-22T13:53:20;9.15;;;4.85;;
8580;SDS011;4328;48.622;9.230;2023-06-22T13:55:46;10.48;;;5.03;;
8580;SDS011;4328;48.622;9.230;2023-06-22T13:58:12;9.05;;;4.72;;
8580;SDS011;4328;48.622;9.230;2023-06-22T14:00:39;8.65;;;5.15;;
8580;SDS011;4328;48.622;9.230;2023-06-22T14:03:05;7.68;;;5.13;;
8580;SDS011;4328;48.622;9.230;2023-06-22T14:05:33;9.13;;;4.85;;
8580;SDS011;4328;48.622;9.230;2023-06-22T14:07:59;10.25;;;4.70;;
8580;SDS011;4328;48.622;9.230;2023-06-22T14:10:26;10.18;;;5.20;;
8580;SDS011;4328;48.622;9.230;2023-06-22T14:12:52;8.00;;;5.05;;
8580;SDS011;4328;48.622;9.230;2023-06-22T14:15:19;10.60;;;4.88;;
8580;SDS011;4328;48.622;9.230;2023-06-22T14:17:45;7.72;;;4.43;;
8580;SDS011;4328;48.622;9.230;2023-06-22T14:20:11;10.00;;;5.05;;
8580;SDS011;4328;48.622;9.230;2023-06-22T14:22:39;7.38;;;4.50;;
8580;SDS011;4328;48.622;9.230;2023-06-22T14:25:06;7.82;;;5.10;;
8580;SDS011;4328;48.622;9.230;2023-06-22T14:27:32;8.82;;;5.13;;
8580;SDS011;4328;48.622;9.230;2023-06-22T14:29:59;9.10;;;5.20;;
8580;SDS011;4328;48.622;9.230;2023-06-22T14:32:27;8.32;;;5.00;;
8580;SDS011;4328;48.622;9.230;2023-06-22T14:34:54;8.20;;;4.82;;
8580;SDS011;4328;48.622;9.230;2023-06-22T14:37:21;9.65;;;5.20;;
8580;SDS011;4328;48.622;9.230;2023-06-22T14:39:48;7.22;;;4.63;;
8580;SDS011;4328;48.622;9.230;2023-06-22T14:42:15;8.70;;;4.72;;
8580;SDS011;4328;48.622;9.230;2023-06-22T14:44:41;8.95;;;4.97;;
8580;SDS011;4328;48.622;9.230;2023-06-22T14:47:08;9.95;;;4.95;;
8580;SDS011;4328;48.622;9.230;2023-06-22T14:49:34;8.27;;;4.95;;
8580;SDS011;4328;48.622;9.230;2023-06-22T14:52:01;9.32;;;5.22;;
8580;SDS011;4328;48.622;9.230;2023-06-22T14:54:28;8.82;;;4.95;;
8580;SDS011;4328;48.622;9.230;2023-06-22T14:56:56;6.80;;;4.90;;
8580;SDS011;4328;48.622;9.230;2023-06-22T14:59:22;10.82;;;4.97;;
8580;SDS011;4328;48.622;9.230;2023-06-22T15:01:48;8.70;;;5.07;;
8580;SDS011;4328;48.622;9.230;2023-06-22T15:04:15;9.38;;;4.82;;
8580;SDS011;4328;48.622;9.230;2023-06-22T15:06:41;9.75;;;5.30;;
8580;SDS011;4328;48.622;9.230;2023-06-22T15:09:09;9.52;;;4.47;;
8580;SDS011;4328;48.622;9.230;2023-06-22T15:11:35;6.88;;;4.03;;